createdAt,value
2018-01-28T00:00:35.093Z,14.30
2018-01-28T00:03:02.648Z,14.70
2018-01-28T00:05:30.214Z,17.10
2018-01-28T00:07:57.800Z,14.83
2018-01-28T00:10:26.157Z,14.57
2018-01-28T00:12:53.688Z,16.43
2018-01-28T00:15:21.253Z,14.23
2018-01-28T00:17:48.810Z,15.10
2018-01-28T00:20:16.342Z,13.83
2018-01-28T00:22:44.701Z,13.03
2018-01-28T00:25:12.276Z,12.20
2018-01-28T00:27:39.811Z,13.37
2018-01-28T00:30:07.446Z,11.73
2018-01-28T00:32:34.968Z,14.23
2018-01-28T00:35:03.279Z,13.23
2018-01-28T00:37:30.830Z,14.67
2018-01-28T00:39:58.351Z,13.33
2018-01-28T00:42:25.879Z,12.37
2018-01-28T00:44:53.441Z,11.30
2018-01-28T00:47:21.010Z,12.03
2018-01-28T00:49:48.631Z,13.47
2018-01-28T00:52:16.170Z,11.87
2018-01-28T00:54:43.726Z,12.23
2018-01-28T00:57:12.018Z,10.47
2018-01-28T00:59:39.557Z,11.30
2018-01-28T01:02:07.890Z,11.87
2018-01-28T01:04:35.426Z,10.10
2018-01-28T01:07:02.995Z,12.40
2018-01-28T01:09:30.522Z,12.20
2018-01-28T01:11:58.868Z,12.50
2018-01-28T01:14:26.402Z,13.07
2018-01-28T01:16:53.975Z,14.63
2018-01-28T01:19:21.548Z,11.60
2018-01-28T01:21:49.072Z,14.87
2018-01-28T01:24:16.601Z,12.63
2018-01-28T01:26:44.131Z,13.93
2018-01-28T01:29:11.690Z,15.23
2018-01-28T01:31:39.237Z,14.97
2018-01-28T01:34:06.798Z,14.20
2018-01-28T01:36:34.309Z,15.90
2018-01-28T01:39:01.842Z,17.80
2018-01-28T01:41:30.151Z,13.37
2018-01-28T01:43:57.689Z,15.13
2018-01-28T01:46:25.240Z,13.00
2018-01-28T01:48:53.543Z,16.33
2018-01-28T01:51:21.081Z,16.57
2018-01-28T01:56:23.310Z,17.00
2018-01-28T01:58:50.841Z,14.83
2018-01-28T02:01:18.376Z,13.57
2018-01-28T02:03:46.731Z,16.30
2018-01-28T02:06:15.038Z,15.03
2018-01-28T02:08:43.321Z,14.10
2018-01-28T02:11:10.892Z,16.50
2018-01-28T02:13:38.436Z,19.93
2018-01-28T02:16:06.743Z,15.87
2018-01-28T02:18:34.269Z,17.00
2018-01-28T02:21:02.599Z,18.37
2018-01-28T02:23:30.141Z,15.30
2018-01-28T02:25:57.670Z,14.73
2018-01-28T02:28:25.978Z,13.53
2018-01-28T02:30:53.497Z,15.37
2018-01-28T02:33:21.804Z,15.90
2018-01-28T02:35:49.398Z,16.20
2018-01-28T02:38:16.986Z,13.47
2018-01-28T02:40:44.542Z,14.70
2018-01-28T02:43:12.087Z,17.23
2018-01-28T02:45:39.630Z,12.37
2018-01-28T02:48:07.189Z,15.60
2018-01-28T02:50:34.769Z,15.63
2018-01-28T02:53:02.324Z,12.73
2018-01-28T02:55:29.865Z,12.83
2018-01-28T02:57:57.389Z,12.70
2018-01-28T03:00:25.713Z,12.03
2018-01-28T03:02:53.268Z,11.87
2018-01-28T03:05:20.872Z,10.93
2018-01-28T03:07:49.194Z,10.57
2018-01-28T03:10:16.708Z,11.23
2018-01-28T03:12:44.273Z,10.00
2018-01-28T03:15:11.776Z,9.60
2018-01-28T03:17:39.325Z,9.87
2018-01-28T03:20:06.885Z,10.53
2018-01-28T03:22:34.449Z,8.83
2018-01-28T03:25:01.967Z,11.93
2018-01-28T03:27:30.301Z,11.50
2018-01-28T03:29:57.831Z,12.17
2018-01-28T03:32:25.408Z,12.57
2018-01-28T03:34:52.973Z,9.97
2018-01-28T03:37:20.513Z,10.57
2018-01-28T03:39:48.057Z,12.80
2018-01-28T03:42:15.602Z,10.10
2018-01-28T03:44:43.898Z,14.83
2018-01-28T03:47:11.433Z,10.30
2018-01-28T03:49:39.747Z,10.00
2018-01-28T03:52:07.337Z,9.03
2018-01-28T03:54:34.857Z,8.30
2018-01-28T03:57:02.385Z,7.83
2018-01-28T03:59:30.685Z,7.20
2018-01-28T04:01:58.271Z,9.97
2018-01-28T04:04:26.577Z,8.53
2018-01-28T04:06:54.121Z,9.53
2018-01-28T04:09:21.637Z,9.70
2018-01-28T04:11:49.165Z,8.73
2018-01-28T04:14:16.689Z,8.70
2018-01-28T04:16:44.230Z,10.60
2018-01-28T04:19:11.799Z,12.07
2018-01-28T04:21:39.333Z,6.97
2018-01-28T04:24:06.860Z,9.13
2018-01-28T04:26:34.415Z,9.17
2018-01-28T04:29:01.954Z,9.03
2018-01-28T04:31:29.468Z,6.70
2018-01-28T04:33:57.030Z,9.40
2018-01-28T04:36:24.568Z,6.70
2018-01-28T04:38:52.859Z,9.97
2018-01-28T04:41:21.141Z,9.20
2018-01-28T04:43:48.673Z,8.37
2018-01-28T04:46:16.980Z,7.27
2018-01-28T04:48:44.506Z,7.93
2018-01-28T04:51:12.050Z,8.47
2018-01-28T04:53:39.605Z,6.43
2018-01-28T04:56:07.155Z,7.70
2018-01-28T04:58:34.690Z,9.73
2018-01-28T05:01:02.245Z,8.27
2018-01-28T05:03:29.801Z,8.57
2018-01-28T05:05:57.301Z,9.60
2018-01-28T05:08:24.848Z,8.87
2018-01-28T05:10:52.385Z,8.07
2018-01-28T05:13:19.915Z,8.17
2018-01-28T05:15:48.311Z,9.40
2018-01-28T05:18:15.868Z,7.77
2018-01-28T05:20:43.406Z,7.70
2018-01-28T05:23:11.692Z,8.97
2018-01-28T05:25:39.238Z,8.53
2018-01-28T05:28:06.790Z,9.37
2018-01-28T05:30:34.334Z,7.77
2018-01-28T05:33:01.899Z,6.87
2018-01-28T05:35:29.435Z,7.20
2018-01-28T05:37:56.997Z,9.97
2018-01-28T05:40:24.513Z,9.33
2018-01-28T05:42:52.814Z,8.90
2018-01-28T05:45:20.361Z,6.60
2018-01-28T05:47:47.916Z,8.10
2018-01-28T05:50:15.517Z,8.07
2018-01-28T05:52:43.054Z,7.40
2018-01-28T05:55:10.601Z,7.20
2018-01-28T05:57:38.159Z,7.87
2018-01-28T06:00:05.708Z,8.80
2018-01-28T06:02:33.268Z,9.50
2018-01-28T06:05:01.578Z,7.40
2018-01-28T06:07:29.123Z,7.97
2018-01-28T06:12:30.485Z,8.00
2018-01-28T06:14:58.049Z,9.00
2018-01-28T06:17:25.585Z,8.97
2018-01-28T06:19:53.163Z,10.47
2018-01-28T06:22:20.710Z,10.73
2018-01-28T06:24:49.005Z,8.77
2018-01-28T06:27:16.530Z,9.03
2018-01-28T06:29:44.884Z,9.33
2018-01-28T06:32:12.410Z,10.83
2018-01-28T06:34:39.953Z,7.97
2018-01-28T06:37:07.494Z,8.30
2018-01-28T06:39:35.807Z,8.27
2018-01-28T06:42:03.359Z,8.73
2018-01-28T06:44:30.914Z,7.70
2018-01-28T06:46:58.430Z,5.60
2018-01-28T06:49:25.956Z,7.87
2018-01-28T06:51:53.428Z,5.93
2018-01-28T06:54:20.875Z,7.43
2018-01-28T06:56:48.339Z,6.10
2018-01-28T06:59:15.862Z,7.10
2018-01-28T07:01:43.522Z,7.17
2018-01-28T07:04:11.025Z,5.67
2018-01-28T07:06:39.234Z,8.80
2018-01-28T07:09:06.738Z,5.47
2018-01-28T07:11:34.295Z,5.33
2018-01-28T07:14:01.804Z,5.83
2018-01-28T07:16:30.105Z,5.83
2018-01-28T07:18:57.617Z,7.13
2018-01-28T07:21:25.652Z,7.00
2018-01-28T07:23:53.155Z,7.93
2018-01-28T07:26:20.709Z,5.53
2018-01-28T07:28:48.207Z,6.77
2018-01-28T07:31:15.694Z,8.20
2018-01-28T07:33:43.182Z,7.27
2018-01-28T07:36:10.650Z,6.60
2018-01-28T07:38:38.128Z,7.83
2018-01-28T07:41:07.169Z,9.93
2018-01-28T07:43:34.669Z,8.80
2018-01-28T07:46:02.968Z,7.70
2018-01-28T07:48:30.587Z,8.50
2018-01-28T07:50:58.072Z,7.00
2018-01-28T07:53:26.382Z,7.70
2018-01-28T07:58:38.979Z,9.50
2018-01-28T08:01:07.780Z,9.70
2018-01-28T08:03:35.374Z,11.07
2018-01-28T08:06:02.918Z,8.67
2018-01-28T08:11:05.488Z,7.83
2018-01-28T08:27:08.058Z,6.70
2018-01-28T08:29:37.305Z,7.27
2018-01-28T08:32:04.774Z,6.60
2018-01-28T08:34:32.231Z,9.93
2018-01-28T08:36:59.695Z,8.60
2018-01-28T08:39:27.148Z,10.00
2018-01-28T08:41:54.608Z,7.37
2018-01-28T08:44:22.092Z,8.60
2018-01-28T08:46:50.331Z,8.10
2018-01-28T08:49:17.809Z,8.07
2018-01-28T08:51:45.410Z,9.50
2018-01-28T08:54:12.932Z,9.57
2018-01-28T08:56:42.128Z,8.67
2018-01-28T08:59:09.605Z,10.10
2018-01-28T09:01:37.918Z,9.23
2018-01-28T09:04:05.471Z,9.80
2018-01-28T09:06:32.983Z,9.93
2018-01-28T09:09:01.406Z,7.30
2018-01-28T09:14:23.107Z,16.60
2018-01-28T09:16:51.397Z,17.00
2018-01-28T09:19:19.776Z,9.30
2018-01-28T09:21:48.031Z,7.03
2018-01-28T09:24:19.042Z,7.50
2018-01-28T09:26:46.553Z,8.10
2018-01-28T09:29:14.820Z,7.53
2018-01-28T09:31:43.082Z,8.63
2018-01-28T09:34:13.565Z,8.30
2018-01-28T09:36:46.559Z,6.80
2018-01-28T09:39:14.040Z,7.20
2018-01-28T09:41:41.518Z,7.33
2018-01-28T09:44:10.037Z,8.70
2018-01-28T09:46:48.619Z,5.77
2018-01-28T09:49:19.612Z,7.03
2018-01-28T09:51:47.170Z,6.03
2018-01-28T09:54:14.640Z,6.00
2018-01-28T09:56:46.058Z,6.53
2018-01-28T09:59:13.610Z,4.97
2018-01-28T10:01:41.092Z,7.53
2018-01-28T10:04:08.548Z,5.20
2018-01-28T10:06:36.007Z,4.43
2018-01-28T10:09:03.824Z,5.50
2018-01-28T10:11:32.233Z,6.70
2018-01-28T10:14:09.846Z,6.27
2018-01-28T10:16:37.346Z,5.60
2018-01-28T10:21:58.529Z,5.83
2018-01-28T10:24:26.064Z,4.57
2018-01-28T10:26:54.431Z,6.30
2018-01-28T10:29:22.248Z,5.40
2018-01-28T10:31:49.819Z,5.77
2018-01-28T10:34:17.412Z,6.17
2018-01-28T10:36:44.965Z,6.80
2018-01-28T10:39:12.491Z,5.83
2018-01-28T10:41:40.046Z,6.07
2018-01-28T10:44:07.627Z,5.03
2018-01-28T10:46:35.185Z,6.13
2018-01-28T10:49:03.576Z,7.00
2018-01-28T10:51:31.195Z,5.20
2018-01-28T10:53:59.460Z,6.30
2018-01-28T10:56:27.703Z,6.63
2018-01-28T10:58:55.189Z,5.63
2018-01-28T11:01:23.533Z,7.07
2018-01-28T11:03:51.057Z,5.17
2018-01-28T11:06:18.657Z,4.43
2018-01-28T11:08:46.265Z,8.00
2018-01-28T11:11:13.800Z,5.03
2018-01-28T11:13:42.122Z,5.40
2018-01-28T11:16:09.674Z,4.53
2018-01-28T11:18:37.203Z,5.37
2018-01-28T11:21:04.722Z,4.83
2018-01-28T11:23:32.236Z,7.47
2018-01-28T11:25:59.762Z,5.50
2018-01-28T11:28:27.293Z,4.03
2018-01-28T11:30:54.861Z,4.87
2018-01-28T11:33:22.384Z,3.53
2018-01-28T11:35:49.931Z,5.40
2018-01-28T11:38:17.478Z,5.60
2018-01-28T11:40:45.783Z,4.47
2018-01-28T11:43:13.306Z,3.83
2018-01-28T11:45:40.864Z,3.67
2018-01-28T11:48:08.408Z,3.20
2018-01-28T11:50:35.945Z,3.50
2018-01-28T11:53:03.482Z,3.73
2018-01-28T11:55:31.076Z,3.10
2018-01-28T11:57:58.684Z,3.27
2018-01-28T12:00:26.276Z,3.60
2018-01-28T12:02:53.778Z,3.40
2018-01-28T12:05:22.172Z,3.30
2018-01-28T12:07:49.726Z,3.67
2018-01-28T12:10:17.320Z,3.30
2018-01-28T12:12:44.853Z,3.07
2018-01-28T12:15:12.445Z,3.57
2018-01-28T12:17:40.006Z,3.30
2018-01-28T12:20:07.552Z,4.23
2018-01-28T12:22:35.146Z,3.23
2018-01-28T12:25:02.701Z,4.80
2018-01-28T12:27:36.780Z,3.13
2018-01-28T12:30:04.330Z,2.90
2018-01-28T12:32:31.833Z,3.30
2018-01-28T12:34:59.331Z,4.10
2018-01-28T12:37:29.332Z,4.67
2018-01-28T12:39:56.829Z,3.93
2018-01-28T12:42:24.293Z,4.37
2018-01-28T12:44:51.935Z,4.37
2018-01-28T12:47:20.215Z,3.90
2018-01-28T12:49:48.450Z,4.00
2018-01-28T12:52:15.963Z,4.10
2018-01-28T12:54:43.613Z,3.90
2018-01-28T12:57:11.145Z,3.67
2018-01-28T12:59:38.665Z,2.80
2018-01-28T13:02:06.129Z,4.20
2018-01-28T13:04:33.588Z,3.77
2018-01-28T13:07:01.059Z,3.47
2018-01-28T13:09:28.518Z,3.37
2018-01-28T13:11:55.981Z,4.03
2018-01-28T13:14:23.492Z,3.40
2018-01-28T13:16:51.001Z,3.50
2018-01-28T13:19:18.453Z,4.73
2018-01-28T13:21:45.919Z,5.70
2018-01-28T13:24:13.383Z,2.10
2018-01-28T13:26:40.885Z,4.00
2018-01-28T13:29:09.136Z,2.73
2018-01-28T13:31:37.358Z,2.60
2018-01-28T13:34:04.828Z,2.53
2018-01-28T13:36:32.295Z,2.67
2018-01-28T13:38:59.811Z,2.80
2018-01-28T13:44:01.932Z,2.50
2018-01-28T13:46:29.546Z,3.57
2018-01-28T13:48:57.837Z,5.70
2018-01-28T13:51:26.060Z,3.90
2018-01-28T13:53:53.571Z,2.10
2018-01-28T13:56:21.935Z,3.20
2018-01-28T13:58:50.235Z,2.27
2018-01-28T14:01:17.739Z,2.90
2018-01-28T14:03:45.302Z,2.53
2018-01-28T14:06:12.818Z,2.30
2018-01-28T14:08:40.339Z,6.33
2018-01-28T14:11:07.789Z,3.50
2018-01-28T14:13:36.004Z,2.30
2018-01-28T14:16:03.460Z,2.27
2018-01-28T14:18:42.668Z,3.23
2018-01-28T14:21:10.126Z,3.17
2018-01-28T14:23:38.447Z,2.63
2018-01-28T14:26:05.907Z,3.40
2018-01-28T14:28:33.372Z,3.40
2018-01-28T14:31:00.881Z,2.60
2018-01-28T14:33:29.121Z,2.20
2018-01-28T14:35:56.627Z,4.20
2018-01-28T14:38:24.129Z,2.60
2018-01-28T14:40:51.619Z,2.87
2018-01-28T14:43:20.889Z,3.80
2018-01-28T14:45:48.484Z,2.50
2018-01-28T14:48:19.337Z,3.97
2018-01-28T14:50:58.716Z,3.57
2018-01-28T14:53:26.234Z,2.60
2018-01-28T14:55:54.448Z,2.77
2018-01-28T14:58:21.940Z,4.03
2018-01-28T15:00:49.402Z,3.60
2018-01-28T15:03:16.903Z,2.83
2018-01-28T15:05:45.106Z,3.13
2018-01-28T15:08:12.567Z,2.97
2018-01-28T15:10:40.040Z,2.67
2018-01-28T15:13:07.542Z,2.90
2018-01-28T15:15:35.053Z,4.07
2018-01-28T15:18:03.278Z,3.80
2018-01-28T15:20:30.812Z,2.90
2018-01-28T15:22:58.273Z,4.67
2018-01-28T15:25:26.783Z,3.17
2018-01-28T15:27:54.290Z,5.83
2018-01-28T15:30:22.503Z,5.60
2018-01-28T15:32:50.151Z,3.17
2018-01-28T15:35:18.429Z,3.93
2018-01-28T15:37:46.763Z,2.97
2018-01-28T15:40:14.268Z,3.70
2018-01-28T15:43:00.244Z,3.10
2018-01-28T15:45:27.737Z,3.17
2018-01-28T15:47:55.291Z,3.37
2018-01-28T15:50:22.819Z,2.77
2018-01-28T15:52:50.305Z,3.50
2018-01-28T15:55:18.125Z,2.70
2018-01-28T16:00:29.995Z,4.00
2018-01-28T16:02:57.457Z,4.80
2018-01-28T16:05:24.982Z,3.20
2018-01-28T16:07:52.442Z,2.50
2018-01-28T16:10:19.912Z,3.43
2018-01-28T16:12:48.192Z,3.20
2018-01-28T16:15:16.603Z,4.20
2018-01-28T16:17:44.152Z,2.47
2018-01-28T16:20:11.630Z,3.00
2018-01-28T16:22:39.093Z,3.07
2018-01-28T16:25:06.607Z,3.50
2018-01-28T16:27:34.984Z,1.90
2018-01-28T16:30:03.540Z,3.60
2018-01-28T16:32:32.605Z,3.03
2018-01-28T16:35:00.135Z,3.50
2018-01-28T16:37:27.640Z,4.00
2018-01-28T16:39:55.211Z,3.03
2018-01-28T16:42:22.733Z,3.50
2018-01-28T16:44:52.302Z,3.60
2018-01-28T16:47:20.798Z,3.17
2018-01-28T16:49:51.740Z,3.80
2018-01-28T16:52:23.575Z,6.03
2018-01-28T16:54:51.064Z,3.93
2018-01-28T16:57:18.535Z,18.40
2018-01-28T16:59:46.513Z,3.30
2018-01-28T17:02:14.018Z,3.23
2018-01-28T17:04:41.716Z,4.07
2018-01-28T17:07:09.323Z,2.77
2018-01-28T17:09:36.753Z,3.00
2018-01-28T17:12:04.212Z,2.37
2018-01-28T17:14:31.708Z,2.13
2018-01-28T17:16:59.214Z,4.90
2018-01-28T17:19:26.656Z,2.80
2018-01-28T17:21:54.125Z,1.50
2018-01-28T17:24:21.627Z,2.33
2018-01-28T17:26:49.895Z,2.40
2018-01-28T17:29:18.167Z,2.50
2018-01-28T17:31:46.399Z,2.30
2018-01-28T17:34:13.908Z,2.27
2018-01-28T17:36:42.184Z,2.43
2018-01-28T17:39:10.442Z,3.20
2018-01-28T17:41:37.897Z,2.77
2018-01-28T17:44:05.386Z,1.80
2018-01-28T17:46:33.611Z,1.70
2018-01-28T17:49:01.840Z,1.80
2018-01-28T17:51:32.199Z,1.80
2018-01-28T17:53:59.707Z,2.77
2018-01-28T17:56:28.330Z,1.90
2018-01-28T17:58:55.848Z,3.30
2018-01-28T18:01:24.124Z,2.57
2018-01-28T18:03:52.353Z,2.30
2018-01-28T18:06:20.094Z,2.40
2018-01-28T18:08:47.608Z,2.23
2018-01-28T18:11:15.051Z,3.60
2018-01-28T18:13:42.571Z,3.43
2018-01-28T18:16:10.032Z,2.00
2018-01-28T18:18:37.502Z,2.80
2018-01-28T18:21:04.957Z,2.93
2018-01-28T18:23:32.467Z,2.50
2018-01-28T18:26:00.688Z,2.33
2018-01-28T18:28:28.162Z,2.37
2018-01-28T18:30:55.679Z,2.77
2018-01-28T18:33:23.944Z,1.97
2018-01-28T18:35:52.284Z,4.60
2018-01-28T18:38:19.817Z,2.97
2018-01-28T18:40:47.330Z,3.00
2018-01-28T18:43:14.834Z,2.73
2018-01-28T18:45:42.443Z,3.60
2018-01-28T18:48:10.718Z,2.17
2018-01-28T18:50:38.241Z,2.33
2018-01-28T18:53:05.748Z,2.63
2018-01-28T18:55:33.975Z,2.70
2018-01-28T18:58:01.489Z,1.80
2018-01-28T19:00:29.775Z,2.30
2018-01-28T19:02:58.078Z,2.40
2018-01-28T19:05:26.046Z,3.93
2018-01-28T19:07:53.508Z,2.40
2018-01-28T19:10:21.007Z,5.33
2018-01-28T19:12:48.553Z,3.30
2018-01-28T19:15:16.108Z,2.63
2018-01-28T19:17:43.552Z,2.50
2018-01-28T19:20:11.080Z,3.60
2018-01-28T19:22:38.601Z,2.67
2018-01-28T19:25:06.619Z,2.67
2018-01-28T19:27:34.350Z,2.83
2018-01-28T19:30:01.901Z,2.87
2018-01-28T19:32:29.354Z,3.03
2018-01-28T19:34:56.927Z,8.70
2018-01-28T19:37:24.443Z,4.13
2018-01-28T19:39:52.958Z,2.80
2018-01-28T19:42:20.470Z,3.93
2018-01-28T19:44:49.968Z,6.50
2018-01-28T19:47:20.475Z,3.97
2018-01-28T19:49:48.080Z,3.27
2018-01-28T19:52:16.361Z,3.13
2018-01-28T19:54:44.581Z,2.77
2018-01-28T19:57:12.089Z,3.97
2018-01-28T19:59:39.759Z,5.53
2018-01-28T20:02:07.249Z,3.77
2018-01-28T20:04:34.726Z,2.97
2018-01-28T20:07:02.219Z,2.53
2018-01-28T20:09:29.736Z,3.53
2018-01-28T20:11:57.269Z,2.97
2018-01-28T20:14:25.556Z,2.50
2018-01-28T20:16:53.003Z,3.67
2018-01-28T20:19:20.517Z,2.13
2018-01-28T20:21:48.015Z,1.90
2018-01-28T20:24:16.426Z,2.40
2018-01-28T20:26:43.917Z,1.80
2018-01-28T20:29:11.392Z,2.33
2018-01-28T20:31:38.893Z,2.03
2018-01-28T20:34:06.406Z,2.10
2018-01-28T20:36:33.871Z,1.97
2018-01-28T20:39:01.379Z,2.50
2018-01-28T20:41:28.854Z,1.70
2018-01-28T20:43:56.368Z,2.17
2018-01-28T20:46:23.894Z,1.97
2018-01-28T20:48:51.357Z,1.80
2018-01-28T20:51:18.892Z,1.90
2018-01-28T20:53:46.391Z,1.70
2018-01-28T20:56:14.661Z,1.87
2018-01-28T20:58:43.058Z,1.83
2018-01-28T21:01:11.394Z,1.40
2018-01-28T21:03:38.917Z,1.73
2018-01-28T21:06:06.581Z,1.40
2018-01-28T21:08:34.080Z,1.70
2018-01-28T21:11:01.670Z,2.23
2018-01-28T21:13:29.890Z,1.60
2018-01-28T21:15:57.405Z,1.60
2018-01-28T21:18:25.675Z,1.50
2018-01-28T21:20:53.958Z,1.50
2018-01-28T21:23:22.236Z,1.50
2018-01-28T21:25:49.759Z,1.80
2018-01-28T21:28:17.203Z,1.73
2018-01-28T21:30:44.735Z,1.40
2018-01-28T21:33:12.233Z,2.47
2018-01-28T21:35:39.748Z,1.47
2018-01-28T21:38:07.421Z,1.30
2018-01-28T21:40:34.926Z,1.30
2018-01-28T21:43:02.435Z,1.40
2018-01-28T21:45:29.927Z,1.60
2018-01-28T21:47:57.438Z,1.40
2018-01-28T21:50:24.931Z,1.80
2018-01-28T21:52:52.446Z,1.63
2018-01-28T21:55:19.946Z,1.90
2018-01-28T21:57:47.455Z,1.40
2018-01-28T22:00:15.719Z,1.43
2018-01-28T22:02:43.230Z,1.97
2018-01-28T22:05:10.694Z,1.70
2018-01-28T22:07:38.147Z,2.43
2018-01-28T22:10:05.646Z,1.63
2018-01-28T22:12:33.159Z,1.57
2018-01-28T22:15:00.658Z,1.50
2018-01-28T22:17:28.157Z,1.60
2018-01-28T22:19:55.645Z,1.47
2018-01-28T22:22:23.099Z,1.37
2018-01-28T22:24:50.698Z,1.40
2018-01-28T22:27:18.154Z,1.43
2018-01-28T22:29:45.611Z,1.40
2018-01-28T22:32:13.069Z,1.73
2018-01-28T22:34:40.576Z,1.20
2018-01-28T22:37:08.049Z,1.50
2018-01-28T22:39:35.560Z,1.50
2018-01-28T22:42:03.839Z,1.30
2018-01-28T22:44:32.101Z,1.50
2018-01-28T22:47:00.327Z,1.23
2018-01-28T22:49:27.826Z,1.40
2018-01-28T22:51:55.346Z,1.60
2018-01-28T22:54:22.795Z,1.40
2018-01-28T22:56:50.255Z,1.57
2018-01-28T22:59:17.810Z,1.30
2018-01-28T23:01:45.340Z,1.40
2018-01-28T23:04:12.844Z,1.43
2018-01-28T23:06:40.338Z,1.30
2018-01-28T23:09:07.795Z,1.70
2018-01-28T23:11:35.293Z,1.30
2018-01-28T23:14:02.760Z,1.60
2018-01-28T23:16:30.210Z,1.33
2018-01-28T23:18:57.711Z,1.53
2018-01-28T23:21:25.172Z,1.70
2018-01-28T23:23:52.681Z,1.30
2018-01-28T23:26:20.124Z,1.87
2018-01-28T23:28:47.582Z,1.60
2018-01-28T23:31:15.046Z,1.73
2018-01-28T23:33:42.552Z,1.67
2018-01-28T23:36:10.010Z,2.20
2018-01-28T23:38:37.513Z,2.27
2018-01-28T23:41:04.955Z,1.60
2018-01-28T23:43:33.181Z,2.00
2018-01-28T23:46:00.633Z,1.90
2018-01-28T23:48:28.103Z,1.63
2018-01-28T23:50:55.636Z,1.87
2018-01-28T23:53:23.099Z,1.80
2018-01-28T23:55:50.560Z,1.70
2018-01-28T23:58:18.012Z,2.20
